sensor_id;sensor_type;location;lat;lon;timestamp;P1;durP1;ratioP1;P2;durP2;ratioP2
1577;SDS011;57623;53.608;10.004;2023-02-01T00:01:27;13.23;;;3.30;;
1577;SDS011;57623;53.608;10.004;2023-02-01T00:03:54;13.60;;;3.50;;
1577;SDS011;57623;53.608;10.004;2023-02-01T00:06:28;12.63;;;3.90;;
1577;SDS011;57623;53.608;10.004;2023-02-01T00:09:04;12.80;;;3.73;;
1577;SDS011;57623;53.608;10.004;2023-02-01T00:11:34;12.30;;;3.80;;
1577;SDS011;57623;53.608;10.004;2023-02-01T00:14:02;15.23;;;4.00;;
1577;SDS011;57623;53.608;10.004;2023-02-01T00:16:37;12.63;;;4.03;;
1577;SDS011;57623;53.608;10.004;2023-02-01T00:19:05;15.57;;;3.47;;
1577;SDS011;57623;53.608;10.004;2023-02-01T00:21:40;18.03;;;3.87;;
1577;SDS011;57623;53.608;10.004;2023-02-01T00:24:12;11.83;;;3.70;;
1577;SDS011;57623;53.608;10.004;2023-02-01T00:26:41;18.50;;;5.10;;
1577;SDS011;57623;53.608;10.004;2023-02-01T00:29:17;12.57;;;3.50;;
1577;SDS011;57623;53.608;10.004;2023-02-01T00:31:50;16.00;;;4.37;;
1577;SDS011;57623;53.608;10.004;2023-02-01T00:34:22;15.47;;;3.87;;
1577;SDS011;57623;53.608;10.004;2023-02-01T00:36:51;11.37;;;3.57;;
1577;SDS011;57623;53.608;10.004;2023-02-01T00:39:27;9.40;;;3.73;;
1577;SDS011;57623;53.608;10.004;2023-02-01T00:41:55;13.73;;;3.47;;
1577;SDS011;57623;53.608;10.004;2023-02-01T00:44:36;13.37;;;3.50;;
1577;SDS011;57623;53.608;10.004;2023-02-01T00:47:05;17.70;;;3.97;;
1577;SDS011;57623;53.608;10.004;2023-02-01T00:49:34;20.50;;;4.83;;
1577;SDS011;57623;53.608;10.004;2023-02-01T00:52:11;19.30;;;3.93;;
1577;SDS011;57623;53.608;10.004;2023-02-01T00:54:46;11.47;;;3.93;;
1577;SDS011;57623;53.608;10.004;2023-02-01T00:57:16;13.20;;;4.37;;
1577;SDS011;57623;53.608;10.004;2023-02-01T00:59:47;13.90;;;4.83;;
1577;SDS011;57623;53.608;10.004;2023-02-01T01:02:26;20.23;;;4.23;;
1577;SDS011;57623;53.608;10.004;2023-02-01T01:04:57;15.00;;;4.60;;
1577;SDS011;57623;53.608;10.004;2023-02-01T01:07:29;18.87;;;4.80;;
1577;SDS011;57623;53.608;10.004;2023-02-01T01:10:02;14.20;;;4.00;;
1577;SDS011;57623;53.608;10.004;2023-02-01T01:12:35;14.40;;;4.40;;
1577;SDS011;57623;53.608;10.004;2023-02-01T01:15:07;13.33;;;4.23;;
1577;SDS011;57623;53.608;10.004;2023-02-01T01:17:40;20.43;;;6.17;;
1577;SDS011;57623;53.608;10.004;2023-02-01T01:20:12;14.00;;;4.00;;
1577;SDS011;57623;53.608;10.004;2023-02-01T01:22:46;16.80;;;5.00;;
1577;SDS011;57623;53.608;10.004;2023-02-01T01:25:17;16.00;;;4.40;;
1577;SDS011;57623;53.608;10.004;2023-02-01T01:27:53;16.40;;;4.80;;
1577;SDS011;57623;53.608;10.004;2023-02-01T01:30:23;18.60;;;5.33;;
1577;SDS011;57623;53.608;10.004;2023-02-01T01:32:57;20.40;;;4.63;;
1577;SDS011;57623;53.608;10.004;2023-02-01T01:35:43;17.33;;;4.97;;
1577;SDS011;57623;53.608;10.004;2023-02-01T01:38:11;17.37;;;4.30;;
1577;SDS011;57623;53.608;10.004;2023-02-01T01:40:44;17.20;;;4.37;;
1577;SDS011;57623;53.608;10.004;2023-02-01T01:43:23;15.37;;;4.00;;
1577;SDS011;57623;53.608;10.004;2023-02-01T01:46:03;16.30;;;4.17;;
1577;SDS011;57623;53.608;10.004;2023-02-01T01:48:36;24.40;;;4.63;;
1577;SDS011;57623;53.608;10.004;2023-02-01T01:51:12;23.30;;;6.00;;
1577;SDS011;57623;53.608;10.004;2023-02-01T01:53:53;13.47;;;3.97;;
1577;SDS011;57623;53.608;10.004;2023-02-01T01:56:27;17.10;;;4.93;;
1577;SDS011;57623;53.608;10.004;2023-02-01T01:58:59;16.33;;;4.10;;
1577;SDS011;57623;53.608;10.004;2023-02-01T02:01:30;18.87;;;5.17;;
1577;SDS011;57623;53.608;10.004;2023-02-01T02:04:10;12.30;;;4.67;;
1577;SDS011;57623;53.608;10.004;2023-02-01T02:06:47;16.20;;;5.07;;
1577;SDS011;57623;53.608;10.004;2023-02-01T02:09:19;24.40;;;4.93;;
1577;SDS011;57623;53.608;10.004;2023-02-01T02:11:53;19.03;;;5.03;;
1577;SDS011;57623;53.608;10.004;2023-02-01T02:14:21;15.33;;;5.03;;
1577;SDS011;57623;53.608;10.004;2023-02-01T02:16:58;14.40;;;4.07;;
1577;SDS011;57623;53.608;10.004;2023-02-01T02:19:48;20.33;;;5.93;;
1577;SDS011;57623;53.608;10.004;2023-02-01T02:22:59;19.77;;;5.20;;
1577;SDS011;57623;53.608;10.004;2023-02-01T02:26:01;17.30;;;4.93;;
1577;SDS011;57623;53.608;10.004;2023-02-01T02:29:07;17.57;;;3.87;;
1577;SDS011;57623;53.608;10.004;2023-02-01T02:38:01;15.70;;;5.20;;
1577;SDS011;57623;53.608;10.004;2023-02-01T02:40:41;14.83;;;4.13;;
1577;SDS011;57623;53.608;10.004;2023-02-01T02:43:28;21.67;;;5.07;;
1577;SDS011;57623;53.608;10.004;2023-02-01T02:46:22;23.13;;;5.33;;
1577;SDS011;57623;53.608;10.004;2023-02-01T02:49:12;19.27;;;5.03;;
1577;SDS011;57623;53.608;10.004;2023-02-01T02:51:50;14.97;;;4.73;;
1577;SDS011;57623;53.608;10.004;2023-02-01T02:54:38;19.20;;;4.33;;
1577;SDS011;57623;53.608;10.004;2023-02-01T02:57:15;16.37;;;4.90;;
1577;SDS011;57623;53.608;10.004;2023-02-01T03:00:04;15.23;;;4.43;;
1577;SDS011;57623;53.608;10.004;2023-02-01T03:02:52;15.73;;;4.20;;
1577;SDS011;57623;53.608;10.004;2023-02-01T03:05:41;18.47;;;5.03;;
1577;SDS011;57623;53.608;10.004;2023-02-01T03:08:25;15.07;;;4.80;;
1577;SDS011;57623;53.608;10.004;2023-02-01T03:11:05;14.00;;;4.77;;
1577;SDS011;57623;53.608;10.004;2023-02-01T03:13:37;16.17;;;5.80;;
1577;SDS011;57623;53.608;10.004;2023-02-01T03:16:12;17.30;;;4.67;;
1577;SDS011;57623;53.608;10.004;2023-02-01T03:18:55;16.60;;;4.80;;
1577;SDS011;57623;53.608;10.004;2023-02-01T03:21:31;13.40;;;4.10;;
1577;SDS011;57623;53.608;10.004;2023-02-01T03:24:09;16.67;;;4.20;;
1577;SDS011;57623;53.608;10.004;2023-02-01T03:26:41;22.17;;;5.10;;
1577;SDS011;57623;53.608;10.004;2023-02-01T03:29:15;15.70;;;4.73;;
1577;SDS011;57623;53.608;10.004;2023-02-01T03:31:54;16.50;;;4.60;;
1577;SDS011;57623;53.608;10.004;2023-02-01T03:34:30;16.80;;;3.60;;
1577;SDS011;57623;53.608;10.004;2023-02-01T03:37:04;13.93;;;3.63;;
1577;SDS011;57623;53.608;10.004;2023-02-01T03:39:41;15.27;;;3.40;;
1577;SDS011;57623;53.608;10.004;2023-02-01T03:42:19;10.90;;;3.10;;
1577;SDS011;57623;53.608;10.004;2023-02-01T03:44:57;8.57;;;3.00;;
1577;SDS011;57623;53.608;10.004;2023-02-01T03:47:33;8.80;;;3.10;;
1577;SDS011;57623;53.608;10.004;2023-02-01T03:50:17;11.00;;;3.00;;
1577;SDS011;57623;53.608;10.004;2023-02-01T03:52:51;9.07;;;2.97;;
1577;SDS011;57623;53.608;10.004;2023-02-01T03:55:38;10.23;;;3.47;;
1577;SDS011;57623;53.608;10.004;2023-02-01T03:58:11;9.50;;;3.30;;
1577;SDS011;57623;53.608;10.004;2023-02-01T04:00:44;9.70;;;3.47;;
1577;SDS011;57623;53.608;10.004;2023-02-01T04:03:17;12.53;;;3.17;;
1577;SDS011;57623;53.608;10.004;2023-02-01T04:05:45;10.80;;;3.17;;
1577;SDS011;57623;53.608;10.004;2023-02-01T04:08:17;13.93;;;3.20;;
1577;SDS011;57623;53.608;10.004;2023-02-01T04:10:50;10.00;;;2.73;;
1577;SDS011;57623;53.608;10.004;2023-02-01T04:13:18;10.57;;;3.90;;
1577;SDS011;57623;53.608;10.004;2023-02-01T04:15:48;12.07;;;3.17;;
1577;SDS011;57623;53.608;10.004;2023-02-01T04:18:19;9.30;;;2.53;;
1577;SDS011;57623;53.608;10.004;2023-02-01T04:20:49;11.20;;;3.30;;
1577;SDS011;57623;53.608;10.004;2023-02-01T04:23:26;13.57;;;3.40;;
1577;SDS011;57623;53.608;10.004;2023-02-01T04:26:04;12.13;;;3.83;;
1577;SDS011;57623;53.608;10.004;2023-02-01T04:28:34;11.40;;;3.10;;
1577;SDS011;57623;53.608;10.004;2023-02-01T04:31:03;8.33;;;3.10;;
1577;SDS011;57623;53.608;10.004;2023-02-01T04:33:32;11.40;;;3.30;;
1577;SDS011;57623;53.608;10.004;2023-02-01T04:35:59;9.07;;;3.20;;
1577;SDS011;57623;53.608;10.004;2023-02-01T04:38:31;13.83;;;3.10;;
1577;SDS011;57623;53.608;10.004;2023-02-01T04:41:03;14.90;;;4.83;;
1577;SDS011;57623;53.608;10.004;2023-02-01T04:43:40;11.97;;;3.13;;
1577;SDS011;57623;53.608;10.004;2023-02-01T04:46:10;6.80;;;2.43;;
1577;SDS011;57623;53.608;10.004;2023-02-01T04:48:39;11.60;;;3.20;;
1577;SDS011;57623;53.608;10.004;2023-02-01T04:51:14;6.20;;;1.90;;
1577;SDS011;57623;53.608;10.004;2023-02-01T04:53:42;7.77;;;3.23;;
1577;SDS011;57623;53.608;10.004;2023-02-01T04:56:15;6.47;;;2.40;;
1577;SDS011;57623;53.608;10.004;2023-02-01T04:58:45;7.63;;;2.63;;
1577;SDS011;57623;53.608;10.004;2023-02-01T05:01:18;12.73;;;3.60;;
1577;SDS011;57623;53.608;10.004;2023-02-01T05:03:54;6.40;;;2.30;;
1577;SDS011;57623;53.608;10.004;2023-02-01T05:06:29;3.20;;;1.83;;
1577;SDS011;57623;53.608;10.004;2023-02-01T05:08:57;6.27;;;2.30;;
1577;SDS011;57623;53.608;10.004;2023-02-01T05:11:34;5.40;;;2.00;;
1577;SDS011;57623;53.608;10.004;2023-02-01T05:14:19;4.53;;;2.03;;
1577;SDS011;57623;53.608;10.004;2023-02-01T05:16:53;4.00;;;1.73;;
1577;SDS011;57623;53.608;10.004;2023-02-01T05:19:31;3.10;;;1.30;;
1577;SDS011;57623;53.608;10.004;2023-02-01T05:22:04;3.07;;;1.10;;
1577;SDS011;57623;53.608;10.004;2023-02-01T05:24:36;2.17;;;1.20;;
1577;SDS011;57623;53.608;10.004;2023-02-01T05:27:07;2.70;;;1.50;;
1577;SDS011;57623;53.608;10.004;2023-02-01T05:29:35;0.87;;;0.80;;
1577;SDS011;57623;53.608;10.004;2023-02-01T05:32:03;1.90;;;1.00;;
1577;SDS011;57623;53.608;10.004;2023-02-01T05:34:47;3.53;;;0.93;;
1577;SDS011;57623;53.608;10.004;2023-02-01T05:37:15;1.33;;;0.70;;
1577;SDS011;57623;53.608;10.004;2023-02-01T05:39:52;1.13;;;0.70;;
1577;SDS011;57623;53.608;10.004;2023-02-01T05:42:27;1.27;;;0.80;;
1577;SDS011;57623;53.608;10.004;2023-02-01T05:44:59;3.03;;;0.80;;
1577;SDS011;57623;53.608;10.004;2023-02-01T05:47:31;2.10;;;0.80;;
1577;SDS011;57623;53.608;10.004;2023-02-01T05:49:59;2.80;;;0.90;;
1577;SDS011;57623;53.608;10.004;2023-02-01T05:52:33;1.40;;;0.70;;
1577;SDS011;57623;53.608;10.004;2023-02-01T05:55:07;1.60;;;0.80;;
1577;SDS011;57623;53.608;10.004;2023-02-01T05:57:39;2.40;;;0.93;;
1577;SDS011;57623;53.608;10.004;2023-02-01T06:00:13;1.13;;;0.60;;
1577;SDS011;57623;53.608;10.004;2023-02-01T06:02:47;2.30;;;0.70;;
1577;SDS011;57623;53.608;10.004;2023-02-01T06:05:21;1.63;;;0.70;;
1577;SDS011;57623;53.608;10.004;2023-02-01T06:07:51;2.03;;;0.80;;
1577;SDS011;57623;53.608;10.004;2023-02-01T06:10:21;0.93;;;0.60;;
1577;SDS011;57623;53.608;10.004;2023-02-01T06:12:58;0.60;;;0.60;;
1577;SDS011;57623;53.608;10.004;2023-02-01T06:15:29;1.70;;;0.90;;
1577;SDS011;57623;53.608;10.004;2023-02-01T06:17:58;1.43;;;0.97;;
1577;SDS011;57623;53.608;10.004;2023-02-01T06:20:32;1.47;;;0.90;;
1577;SDS011;57623;53.608;10.004;2023-02-01T06:23:03;4.43;;;1.47;;
1577;SDS011;57623;53.608;10.004;2023-02-01T06:25:35;2.10;;;0.90;;
1577;SDS011;57623;53.608;10.004;2023-02-01T06:28:13;1.60;;;1.17;;
1577;SDS011;57623;53.608;10.004;2023-02-01T06:30:46;2.10;;;0.90;;
1577;SDS011;57623;53.608;10.004;2023-02-01T06:33:20;2.33;;;0.93;;
1577;SDS011;57623;53.608;10.004;2023-02-01T06:35:50;3.83;;;1.50;;
1577;SDS011;57623;53.608;10.004;2023-02-01T06:38:27;6.17;;;1.30;;
1577;SDS011;57623;53.608;10.004;2023-02-01T06:40:58;3.33;;;1.30;;
1577;SDS011;57623;53.608;10.004;2023-02-01T06:43:28;3.40;;;1.50;;
1577;SDS011;57623;53.608;10.004;2023-02-01T06:46:06;4.60;;;1.40;;
1577;SDS011;57623;53.608;10.004;2023-02-01T06:48:37;4.47;;;1.67;;
1577;SDS011;57623;53.608;10.004;2023-02-01T06:51:18;4.90;;;2.00;;
1577;SDS011;57623;53.608;10.004;2023-02-01T06:53:51;7.50;;;2.23;;
1577;SDS011;57623;53.608;10.004;2023-02-01T06:56:24;3.47;;;1.73;;
1577;SDS011;57623;53.608;10.004;2023-02-01T06:59:01;5.60;;;1.87;;
1577;SDS011;57623;53.608;10.004;2023-02-01T07:01:33;8.43;;;2.47;;
1577;SDS011;57623;53.608;10.004;2023-02-01T07:04:03;9.43;;;2.50;;
1577;SDS011;57623;53.608;10.004;2023-02-01T07:06:35;6.00;;;2.07;;
1577;SDS011;57623;53.608;10.004;2023-02-01T07:09:12;7.77;;;2.30;;
1577;SDS011;57623;53.608;10.004;2023-02-01T07:11:40;8.67;;;2.30;;
1577;SDS011;57623;53.608;10.004;2023-02-01T07:14:14;7.13;;;2.67;;
1577;SDS011;57623;53.608;10.004;2023-02-01T07:16:48;7.43;;;2.77;;
1577;SDS011;57623;53.608;10.004;2023-02-01T07:19:21;7.10;;;2.97;;
1577;SDS011;57623;53.608;10.004;2023-02-01T07:21:50;13.27;;;4.10;;
1577;SDS011;57623;53.608;10.004;2023-02-01T07:24:25;12.43;;;3.00;;
1577;SDS011;57623;53.608;10.004;2023-02-01T07:26:57;7.67;;;2.90;;
1577;SDS011;57623;53.608;10.004;2023-02-01T07:29:28;11.33;;;2.90;;
1577;SDS011;57623;53.608;10.004;2023-02-01T07:32:00;12.30;;;3.47;;
1577;SDS011;57623;53.608;10.004;2023-02-01T07:34:33;11.57;;;3.20;;
1577;SDS011;57623;53.608;10.004;2023-02-01T07:37:01;16.00;;;3.47;;
1577;SDS011;57623;53.608;10.004;2023-02-01T07:39:29;15.53;;;4.00;;
1577;SDS011;57623;53.608;10.004;2023-02-01T07:41:59;8.33;;;2.73;;
1577;SDS011;57623;53.608;10.004;2023-02-01T07:44:29;6.70;;;4.17;;
1577;SDS011;57623;53.608;10.004;2023-02-01T07:46:58;10.20;;;2.67;;
1577;SDS011;57623;53.608;10.004;2023-02-01T07:49:28;8.03;;;2.50;;
1577;SDS011;57623;53.608;10.004;2023-02-01T07:52:01;9.77;;;3.20;;
1577;SDS011;57623;53.608;10.004;2023-02-01T07:54:30;13.30;;;2.90;;
1577;SDS011;57623;53.608;10.004;2023-02-01T07:56:59;14.80;;;3.77;;
1577;SDS011;57623;53.608;10.004;2023-02-01T07:59:31;12.40;;;3.40;;
1577;SDS011;57623;53.608;10.004;2023-02-01T08:02:01;13.40;;;3.67;;
1577;SDS011;57623;53.608;10.004;2023-02-01T08:04:32;15.70;;;3.87;;
1577;SDS011;57623;53.608;10.004;2023-02-01T08:07:02;16.50;;;4.30;;
1577;SDS011;57623;53.608;10.004;2023-02-01T08:09:30;14.03;;;3.60;;
1577;SDS011;57623;53.608;10.004;2023-02-01T08:12:02;16.43;;;4.10;;
1577;SDS011;57623;53.608;10.004;2023-02-01T08:14:47;17.07;;;4.77;;
1577;SDS011;57623;53.608;10.004;2023-02-01T08:17:18;17.10;;;4.63;;
1577;SDS011;57623;53.608;10.004;2023-02-01T08:19:48;18.27;;;5.00;;
1577;SDS011;57623;53.608;10.004;2023-02-01T08:22:24;14.17;;;4.87;;
1577;SDS011;57623;53.608;10.004;2023-02-01T08:24:52;13.53;;;4.13;;
1577;SDS011;57623;53.608;10.004;2023-02-01T08:27:34;14.50;;;3.90;;
1577;SDS011;57623;53.608;10.004;2023-02-01T08:30:20;11.37;;;3.67;;
1577;SDS011;57623;53.608;10.004;2023-02-01T08:33:00;14.43;;;5.23;;
1577;SDS011;57623;53.608;10.004;2023-02-01T08:35:29;14.90;;;3.80;;
1577;SDS011;57623;53.608;10.004;2023-02-01T08:38:09;14.30;;;3.67;;
1577;SDS011;57623;53.608;10.004;2023-02-01T08:40:40;14.73;;;3.70;;
1577;SDS011;57623;53.608;10.004;2023-02-01T08:43:08;9.40;;;3.43;;
1577;SDS011;57623;53.608;10.004;2023-02-01T08:45:44;11.27;;;3.37;;
1577;SDS011;57623;53.608;10.004;2023-02-01T08:48:17;8.97;;;2.20;;
1577;SDS011;57623;53.608;10.004;2023-02-01T08:50:55;8.37;;;2.30;;
1577;SDS011;57623;53.608;10.004;2023-02-01T08:53:31;9.23;;;2.37;;
1577;SDS011;57623;53.608;10.004;2023-02-01T08:56:07;9.47;;;2.27;;
1577;SDS011;57623;53.608;10.004;2023-02-01T08:58:48;6.87;;;2.40;;
1577;SDS011;57623;53.608;10.004;2023-02-01T09:01:24;9.40;;;2.70;;
1577;SDS011;57623;53.608;10.004;2023-02-01T09:03:57;9.63;;;2.80;;
1577;SDS011;57623;53.608;10.004;2023-02-01T09:06:27;7.77;;;3.23;;
1577;SDS011;57623;53.608;10.004;2023-02-01T09:09:00;11.70;;;3.13;;
1577;SDS011;57623;53.608;10.004;2023-02-01T09:11:38;16.50;;;3.70;;
1577;SDS011;57623;53.608;10.004;2023-02-01T09:14:07;16.07;;;4.37;;
1577;SDS011;57623;53.608;10.004;2023-02-01T09:16:41;12.33;;;3.30;;
1577;SDS011;57623;53.608;10.004;2023-02-01T09:19:10;10.53;;;3.43;;
1577;SDS011;57623;53.608;10.004;2023-02-01T09:21:52;12.87;;;4.30;;
1577;SDS011;57623;53.608;10.004;2023-02-01T09:24:20;13.47;;;4.20;;
1577;SDS011;57623;53.608;10.004;2023-02-01T09:26:57;14.37;;;3.50;;
1577;SDS011;57623;53.608;10.004;2023-02-01T09:29:30;15.10;;;4.10;;
1577;SDS011;57623;53.608;10.004;2023-02-01T09:32:03;10.10;;;3.60;;
1577;SDS011;57623;53.608;10.004;2023-02-01T09:34:35;11.47;;;3.33;;
1577;SDS011;57623;53.608;10.004;2023-02-01T09:37:03;13.57;;;3.40;;
1577;SDS011;57623;53.608;10.004;2023-02-01T09:39:31;16.63;;;5.10;;
1577;SDS011;57623;53.608;10.004;2023-02-01T09:42:04;16.13;;;4.00;;
1577;SDS011;57623;53.608;10.004;2023-02-01T09:44:57;9.53;;;3.60;;
1577;SDS011;57623;53.608;10.004;2023-02-01T09:47:49;12.77;;;4.20;;
1577;SDS011;57623;53.608;10.004;2023-02-01T09:50:24;16.60;;;5.27;;
1577;SDS011;57623;53.608;10.004;2023-02-01T09:53:09;17.43;;;4.40;;
1577;SDS011;57623;53.608;10.004;2023-02-01T09:55:41;18.23;;;4.10;;
1577;SDS011;57623;53.608;10.004;2023-02-01T09:58:16;15.03;;;4.60;;
1577;SDS011;57623;53.608;10.004;2023-02-01T10:00:51;18.10;;;4.37;;
1577;SDS011;57623;53.608;10.004;2023-02-01T10:03:24;9.37;;;3.00;;
1577;SDS011;57623;53.608;10.004;2023-02-01T10:06:00;18.63;;;5.17;;
1577;SDS011;57623;53.608;10.004;2023-02-01T10:08:45;10.77;;;3.70;;
1577;SDS011;57623;53.608;10.004;2023-02-01T10:11:43;11.60;;;3.87;;
1577;SDS011;57623;53.608;10.004;2023-02-01T10:14:29;9.83;;;3.43;;
1577;SDS011;57623;53.608;10.004;2023-02-01T10:17:12;8.90;;;3.70;;
1577;SDS011;57623;53.608;10.004;2023-02-01T10:20:06;12.50;;;3.53;;
1577;SDS011;57623;53.608;10.004;2023-02-01T10:22:50;14.03;;;3.40;;
1577;SDS011;57623;53.608;10.004;2023-02-01T10:25:59;11.77;;;3.80;;
1577;SDS011;57623;53.608;10.004;2023-02-01T10:28:37;16.13;;;3.93;;
1577;SDS011;57623;53.608;10.004;2023-02-01T10:31:06;13.80;;;3.87;;
1577;SDS011;57623;53.608;10.004;2023-02-01T10:33:41;7.87;;;2.80;;
1577;SDS011;57623;53.608;10.004;2023-02-01T10:36:15;15.90;;;3.67;;
1577;SDS011;57623;53.608;10.004;2023-02-01T10:38:47;13.10;;;3.50;;
1577;SDS011;57623;53.608;10.004;2023-02-01T10:41:18;10.97;;;3.47;;
1577;SDS011;57623;53.608;10.004;2023-02-01T10:43:52;11.40;;;4.10;;
1577;SDS011;57623;53.608;10.004;2023-02-01T10:46:25;13.10;;;3.30;;
1577;SDS011;57623;53.608;10.004;2023-02-01T10:49:00;12.00;;;3.70;;
1577;SDS011;57623;53.608;10.004;2023-02-01T10:51:36;12.30;;;4.00;;
1577;SDS011;57623;53.608;10.004;2023-02-01T10:54:11;17.80;;;4.93;;
1577;SDS011;57623;53.608;10.004;2023-02-01T10:56:50;14.23;;;3.30;;
1577;SDS011;57623;53.608;10.004;2023-02-01T10:59:23;9.17;;;2.90;;
1577;SDS011;57623;53.608;10.004;2023-02-01T11:02:13;11.70;;;4.20;;
1577;SDS011;57623;53.608;10.004;2023-02-01T11:04:57;12.93;;;3.83;;
1577;SDS011;57623;53.608;10.004;2023-02-01T11:07:31;12.90;;;3.53;;
1577;SDS011;57623;53.608;10.004;2023-02-01T11:10:04;11.37;;;3.00;;
1577;SDS011;57623;53.608;10.004;2023-02-01T11:12:43;8.00;;;2.80;;
1577;SDS011;57623;53.608;10.004;2023-02-01T11:15:24;9.83;;;2.80;;
1577;SDS011;57623;53.608;10.004;2023-02-01T11:18:12;9.70;;;2.57;;
1577;SDS011;57623;53.608;10.004;2023-02-01T11:20:46;9.90;;;3.70;;
1577;SDS011;57623;53.608;10.004;2023-02-01T11:23:21;15.57;;;3.67;;
1577;SDS011;57623;53.608;10.004;2023-02-01T11:25:55;15.87;;;4.37;;
1577;SDS011;57623;53.608;10.004;2023-02-01T11:28:27;19.03;;;4.37;;
1577;SDS011;57623;53.608;10.004;2023-02-01T11:30:59;13.03;;;4.07;;
1577;SDS011;57623;53.608;10.004;2023-02-01T11:33:32;8.90;;;3.40;;
1577;SDS011;57623;53.608;10.004;2023-02-01T11:36:06;11.20;;;4.03;;
1577;SDS011;57623;53.608;10.004;2023-02-01T11:38:45;52.90;;;26.70;;
1577;SDS011;57623;53.608;10.004;2023-02-01T11:41:20;21.97;;;7.87;;
1577;SDS011;57623;53.608;10.004;2023-02-01T11:43:54;15.83;;;3.90;;
1577;SDS011;57623;53.608;10.004;2023-02-01T11:46:28;17.37;;;4.10;;
1577;SDS011;57623;53.608;10.004;2023-02-01T11:48:57;23.50;;;10.50;;
1577;SDS011;57623;53.608;10.004;2023-02-01T11:51:59;31.00;;;14.83;;
1577;SDS011;57623;53.608;10.004;2023-02-01T11:54:40;14.40;;;4.80;;
1577;SDS011;57623;53.608;10.004;2023-02-01T11:57:37;11.50;;;3.60;;
1577;SDS011;57623;53.608;10.004;2023-02-01T12:00:28;12.10;;;4.53;;
1577;SDS011;57623;53.608;10.004;2023-02-01T12:03:15;10.60;;;2.70;;
1577;SDS011;57623;53.608;10.004;2023-02-01T12:06:11;7.53;;;2.00;;
1577;SDS011;57623;53.608;10.004;2023-02-01T12:08:52;7.23;;;2.50;;
1577;SDS011;57623;53.608;10.004;2023-02-01T12:11:33;6.03;;;2.40;;
1577;SDS011;57623;53.608;10.004;2023-02-01T12:14:25;5.93;;;1.83;;
1577;SDS011;57623;53.608;10.004;2023-02-01T12:17:11;10.37;;;2.80;;
1577;SDS011;57623;53.608;10.004;2023-02-01T12:20:05;9.83;;;2.90;;
1577;SDS011;57623;53.608;10.004;2023-02-01T12:22:47;4.57;;;2.43;;
1577;SDS011;57623;53.608;10.004;2023-02-01T12:25:29;7.57;;;2.50;;
1577;SDS011;57623;53.608;10.004;2023-02-01T12:28:28;9.83;;;3.07;;
1577;SDS011;57623;53.608;10.004;2023-02-01T12:31:39;7.03;;;2.47;;
1577;SDS011;57623;53.608;10.004;2023-02-01T12:34:39;9.23;;;2.00;;
1577;SDS011;57623;53.608;10.004;2023-02-01T12:37:31;3.13;;;1.77;;
1577;SDS011;57623;53.608;10.004;2023-02-01T12:40:16;2.53;;;0.97;;
1577;SDS011;57623;53.608;10.004;2023-02-01T12:43:01;2.47;;;1.00;;
1577;SDS011;57623;53.608;10.004;2023-02-01T12:45:39;1.67;;;0.80;;
1577;SDS011;57623;53.608;10.004;2023-02-01T12:48:18;2.37;;;0.90;;
1577;SDS011;57623;53.608;10.004;2023-02-01T12:51:01;1.70;;;0.90;;
1577;SDS011;57623;53.608;10.004;2023-02-01T12:53:43;1.27;;;0.70;;
1577;SDS011;57623;53.608;10.004;2023-02-01T12:56:16;3.30;;;1.20;;
1577;SDS011;57623;53.608;10.004;2023-02-01T12:58:49;5.27;;;1.57;;
1577;SDS011;57623;53.608;10.004;2023-02-01T13:01:22;2.13;;;1.13;;
1577;SDS011;57623;53.608;10.004;2023-02-01T13:04:03;1.50;;;0.83;;
1577;SDS011;57623;53.608;10.004;2023-02-01T13:06:38;1.33;;;0.70;;
1577;SDS011;57623;53.608;10.004;2023-02-01T13:09:17;1.27;;;0.90;;
1577;SDS011;57623;53.608;10.004;2023-02-01T13:12:00;2.00;;;0.83;;
1577;SDS011;57623;53.608;10.004;2023-02-01T13:14:37;4.47;;;0.80;;
1577;SDS011;57623;53.608;10.004;2023-02-01T13:17:19;2.20;;;1.00;;
1577;SDS011;57623;53.608;10.004;2023-02-01T13:19:57;1.57;;;1.00;;
1577;SDS011;57623;53.608;10.004;2023-02-01T13:22:33;3.13;;;0.97;;
1577;SDS011;57623;53.608;10.004;2023-02-01T13:25:11;1.30;;;0.90;;
1577;SDS011;57623;53.608;10.004;2023-02-01T13:27:41;1.00;;;0.70;;
1577;SDS011;57623;53.608;10.004;2023-02-01T13:30:15;3.73;;;0.90;;
1577;SDS011;57623;53.608;10.004;2023-02-01T13:32:54;1.80;;;1.23;;
1577;SDS011;57623;53.608;10.004;2023-02-01T13:36:00;3.63;;;0.93;;
1577;SDS011;57623;53.608;10.004;2023-02-01T13:41:57;1.10;;;0.70;;
1577;SDS011;57623;53.608;10.004;2023-02-01T13:44:29;0.83;;;0.70;;
1577;SDS011;57623;53.608;10.004;2023-02-01T13:47:12;1.50;;;0.93;;
1577;SDS011;57623;53.608;10.004;2023-02-01T13:50:01;2.70;;;1.00;;
1577;SDS011;57623;53.608;10.004;2023-02-01T13:52:42;1.93;;;1.10;;
1577;SDS011;57623;53.608;10.004;2023-02-01T13:55:33;2.50;;;1.17;;
1577;SDS011;57623;53.608;10.004;2023-02-01T13:58:13;2.57;;;1.07;;
1577;SDS011;57623;53.608;10.004;2023-02-01T14:01:30;2.70;;;1.00;;
1577;SDS011;57623;53.608;10.004;2023-02-01T14:04:02;3.90;;;1.20;;
1577;SDS011;57623;53.608;10.004;2023-02-01T14:06:37;4.50;;;1.33;;
1577;SDS011;57623;53.608;10.004;2023-02-01T14:09:16;2.33;;;1.30;;
1577;SDS011;57623;53.608;10.004;2023-02-01T14:11:58;2.00;;;0.97;;
1577;SDS011;57623;53.608;10.004;2023-02-01T14:18:05;2.87;;;0.80;;
1577;SDS011;57623;53.608;10.004;2023-02-01T14:21:30;1.47;;;1.03;;
1577;SDS011;57623;53.608;10.004;2023-02-01T14:24:04;2.60;;;0.90;;
1577;SDS011;57623;53.608;10.004;2023-02-01T14:26:46;2.47;;;0.87;;
1577;SDS011;57623;53.608;10.004;2023-02-01T14:29:21;3.30;;;1.10;;
1577;SDS011;57623;53.608;10.004;2023-02-01T14:32:03;2.57;;;1.10;;
1577;SDS011;57623;53.608;10.004;2023-02-01T14:34:37;4.20;;;1.70;;
1577;SDS011;57623;53.608;10.004;2023-02-01T14:37:23;5.10;;;1.50;;
1577;SDS011;57623;53.608;10.004;2023-02-01T14:39:59;2.20;;;1.17;;
1577;SDS011;57623;53.608;10.004;2023-02-01T14:42:31;4.07;;;1.67;;
1577;SDS011;57623;53.608;10.004;2023-02-01T14:48:43;8.17;;;1.30;;
1577;SDS011;57623;53.608;10.004;2023-02-01T14:51:15;4.50;;;1.37;;
1577;SDS011;57623;53.608;10.004;2023-02-01T14:53:44;5.27;;;1.40;;
1577;SDS011;57623;53.608;10.004;2023-02-01T14:56:18;2.97;;;1.30;;
1577;SDS011;57623;53.608;10.004;2023-02-01T14:58:52;5.03;;;1.93;;
1577;SDS011;57623;53.608;10.004;2023-02-01T15:01:30;5.10;;;2.20;;
1577;SDS011;57623;53.608;10.004;2023-02-01T15:04:08;6.33;;;1.80;;
1577;SDS011;57623;53.608;10.004;2023-02-01T15:06:41;7.07;;;3.70;;
1577;SDS011;57623;53.608;10.004;2023-02-01T15:09:21;4.77;;;2.10;;
1577;SDS011;57623;53.608;10.004;2023-02-01T15:11:58;5.20;;;1.97;;
1577;SDS011;57623;53.608;10.004;2023-02-01T15:14:31;9.07;;;2.60;;
1577;SDS011;57623;53.608;10.004;2023-02-01T15:17:16;8.23;;;1.90;;
1577;SDS011;57623;53.608;10.004;2023-02-01T15:19:53;7.20;;;2.23;;
1577;SDS011;57623;53.608;10.004;2023-02-01T15:22:25;8.03;;;2.37;;
1577;SDS011;57623;53.608;10.004;2023-02-01T15:24:58;7.90;;;2.00;;
1577;SDS011;57623;53.608;10.004;2023-02-01T15:27:29;7.07;;;2.30;;
1577;SDS011;57623;53.608;10.004;2023-02-01T15:30:05;10.73;;;2.37;;
1577;SDS011;57623;53.608;10.004;2023-02-01T15:32:35;9.40;;;2.27;;
1577;SDS011;57623;53.608;10.004;2023-02-01T15:35:34;7.50;;;2.20;;
1577;SDS011;57623;53.608;10.004;2023-02-01T15:38:30;8.50;;;2.33;;
1577;SDS011;57623;53.608;10.004;2023-02-01T15:41:04;5.70;;;1.87;;
1577;SDS011;57623;53.608;10.004;2023-02-01T15:43:40;8.43;;;1.93;;
1577;SDS011;57623;53.608;10.004;2023-02-01T15:46:12;8.10;;;2.47;;
1577;SDS011;57623;53.608;10.004;2023-02-01T15:48:46;6.50;;;1.80;;
1577;SDS011;57623;53.608;10.004;2023-02-01T15:51:19;11.03;;;2.80;;
1577;SDS011;57623;53.608;10.004;2023-02-01T15:53:50;7.97;;;2.30;;